Latest Weather Observations for Pirlangimpi

IDD60901

Issued at 5:31 pm CST Wednesday 1 April 2015 (issued every 10 minutes, with the page automatically refreshed every 10 minutes)

About weather observations | Map of Darwin area stations | Latest observations for Darwin area | Other Formats
Station Details ID: 014142 Name: PIRLANGIMPI AIRPORT Lat: -11.40 Lon: 130.42 Height: 18.3 m
Data from the previous 72 hours. | See also: Recent months at Pirlangimpi
Date/Time
CST
Tmp

°C
App
Tmp
°C
Dew
Point
°C
Rel
Hum
%
Delta-T

°C
Wind Press
QNH
hPa
Press
MSL
hPa
Rain
since
9 am
mm
Dir
 
Spd
km/h
Gust
km/h
Spd
kts
Gust
kts
01/05:30pm 30.0 35.6 24.9 74 3.6 WNW 4 9 2 5 1008.3 1008.2 0.0
01/05:00pm 30.3 35.6 24.9 73 3.8 WNW 6 11 3 6 1008.2 1008.1 0.0
01/04:30pm 31.6 36.9 25.2 69 4.5 W 7 17 4 9 1008.3 1008.2 0.0
01/04:00pm 31.4 35.6 24.8 68 4.6 WSW 11 22 6 12 1008.3 1008.2 0.0
01/03:30pm 32.7 38.1 25.2 64 5.3 W 6 13 3 7 1008.4 1008.3 0.0
01/03:00pm 34.3 39.9 24.8 57 6.7 N 4 7 2 4 1008.4 1008.3 0.0
01/02:30pm 35.1 40.0 24.7 55 7.4 NE 7 13 4 7 1008.6 1008.5 0.0
01/02:00pm 33.7 37.9 23.1 54 7.3 SE 6 11 3 6 1009.0 1008.9 0.0
01/01:30pm 35.8 40.9 24.7 52 7.9 ENE 6 11 3 6 1009.6 1009.5 0.0
01/01:00pm 34.5 38.3 23.5 52 7.7 ENE 9 17 5 9 1010.2 1010.1 0.0
01/12:30pm 34.5 38.1 23.8 53 7.5 E 11 19 6 10 1010.7 1010.6 0.0
01/12:00pm 33.5 37.7 23.5 55 7.0 ESE 7 13 4 7 1011.1 1011.0 0.0
01/11:30am 34.0 38.8 25.1 59 6.3 ENE 9 19 5 10 1011.7 1011.6 0.0
01/11:00am 32.6 37.4 24.1 61 5.9 ENE 6 9 3 5 1012.2 1012.1 0.0
01/10:30am 33.0 38.9 25.3 64 5.5 E 4 9 2 5 1012.5 1012.4 0.0
01/10:00am 32.0 37.9 25.3 67 4.7 SSE 4 9 2 5 1012.5 1012.4 0.0
01/09:30am 30.1 35.1 23.8 69 4.4 SSE 4 9 2 5 1012.6 1012.5 0.0
01/09:00am 29.5 35.3 25.7 80 2.7 SE 6 7 3 4 1012.8 1012.7 0.0
01/08:30am 27.4 33.7 26.0 92 1.0 SSE 4 7 2 4 1012.6 1012.5 0.0
01/08:00am 26.3 32.4 25.6 96 0.5 SSE 4 6 2 3 1012.4 1012.3 0.0
01/07:30am 25.5 30.7 24.8 96 0.5 SE 6 7 3 4 1011.9 1011.8 0.0
01/07:00am 25.2 30.5 24.3 95 0.6 SSE 4 6 2 3 1011.7 1011.6 0.0
01/06:30am 25.0 30.8 24.0 94 0.7 CALM 0 0 0 0 1011.4 1011.3 0.0
01/06:00am 25.0 30.7 23.8 93 0.8 CALM 0 0 0 0 1011.0 1010.9 0.0
01/05:30am 25.2 31.2 24.2 94 0.7 CALM 0 0 0 0 1010.7 1010.6 0.0
01/05:00am 25.1 31.1 24.2 95 0.6 CALM 0 0 0 0 1010.5 1010.4 0.0
01/04:30am 24.9 30.7 23.9 94 0.7 CALM 0 0 0 0 1010.5 1010.4 0.0
01/04:00am 24.9 30.7 23.9 94 0.7 CALM 0 0 0 0 1010.4 1010.3 0.0
01/03:30am 25.0 30.7 23.8 93 0.8 CALM 0 0 0 0 1010.4 1010.3 0.0
01/03:00am 25.1 31.0 24.1 94 0.7 CALM 0 0 0 0 1010.5 1010.4 0.0
01/02:30am 25.1 31.0 24.1 94 0.7 CALM 0 0 0 0 1010.7 1010.6 0.0
01/02:00am 25.0 30.1 24.0 94 0.7 NE 4 4 2 2 1010.7 1010.6 0.0
01/01:30am 25.0 30.8 24.0 94 0.7 CALM 0 0 0 0 1011.1 1011.0 0.0
01/01:00am 24.8 30.2 23.8 94 0.7 NE 2 2 1 1 1011.5 1011.4 0.0
01/12:30am 24.9 30.6 23.7 93 0.8 CALM 0 0 0 0 1011.7 1011.6 0.0
01/12:00am 24.8 30.4 23.6 93 0.8 CALM 0 0 0 0 1011.9 1011.8 0.0
 
Date/Time
CST
Tmp

°C
App
Tmp
°C
Dew
Point
°C
Rel
Hum
%
Delta-T

°C
Wind Press
QNH
hPa
Press
MSL
hPa
Rain
since
9 am
mm
Dir
 
Spd
km/h
Gust
km/h
Spd
kts
Gust
kts
31/11:30pm 25.0 30.6 23.6 92 1.0 CALM 0 0 0 0 1012.0 1011.9 0.0
31/11:00pm 25.0 30.2 23.6 92 1.0 NE 2 2 1 1 1012.0 1011.9 0.0
31/10:30pm 25.1 30.7 23.5 91 1.1 CALM 0 0 0 0 1012.0 1011.9 0.0
31/10:00pm 25.4 30.8 23.8 91 1.1 ENE 2 4 1 2 1012.0 1011.9 0.0
31/09:30pm 25.8 31.5 23.7 88 1.4 CALM 0 0 0 0 1011.9 1011.8 0.0
31/09:00pm 26.2 31.9 23.7 86 1.7 CALM 0 0 0 0 1011.6 1011.5 0.0
31/08:30pm 26.6 32.4 23.9 85 1.9 CALM 0 0 0 0 1011.4 1011.3 0.0
31/08:00pm 26.9 32.6 23.8 83 2.1 CALM 0 0 0 0 1011.2 1011.1 0.0
31/07:30pm 27.4 32.8 23.2 78 2.9 CALM 0 0 0 0 1010.9 1010.8 0.0
31/07:00pm 28.2 32.4 23.1 74 3.5 ENE 6 9 3 5 1010.4 1010.3 0.0
31/06:30pm 29.4 33.5 22.9 68 4.4 NE 6 11 3 6 1010.0 1009.9 0.0
31/06:00pm 30.7 34.5 22.8 62 5.4 NE 7 15 4 8 1009.6 1009.5 0.0
31/05:30pm 32.5 36.8 23.7 59 6.1 NE 7 17 4 9 1009.4 1009.3 0.0
31/05:00pm 33.3 37.6 24.2 59 6.4 NE 9 15 5 8 1009.3 1009.2 0.0
31/04:30pm 34.6 38.9 24.2 54 7.3 ENE 9 19 5 10 1009.0 1008.9 0.0
31/04:00pm 34.0 38.1 24.0 56 7.0 NE 9 17 5 9 1008.9 1008.8 0.0
31/03:30pm 34.7 39.0 24.3 54 7.3 ESE 9 15 5 8 1008.9 1008.8 0.0
31/03:00pm 34.7 38.3 23.7 52 7.7 E 11 19 6 10 1009.1 1009.0 0.0
31/02:30pm 35.1 39.5 24.4 54 7.6 ENE 9 15 5 8 1009.4 1009.3 0.0
31/02:00pm 35.3 39.8 24.6 54 7.6 ENE 9 17 5 9 1009.8 1009.7 0.0
31/01:30pm 34.6 39.2 24.8 56 6.9 NE 9 20 5 11 1010.2 1010.1 0.0
31/01:00pm 33.9 38.0 24.5 58 6.6 E 11 17 6 9 1011.0 1010.9 0.0
31/12:30pm 34.0 38.9 24.6 58 6.6 SE 7 17 4 9 1011.5 1011.4 0.0
31/12:00pm 32.6 37.1 24.6 62 5.6 ESE 9 15 5 8 1012.0 1011.9 0.0
31/11:30am 32.4 36.7 24.2 62 5.7 ESE 9 13 5 7 1012.3 1012.2 0.0
31/11:00am 32.4 35.6 24.4 62 5.6 E 15 24 8 13 1012.7 1012.6 0.0
31/10:30am 31.1 35.4 24.2 66 4.8 E 9 19 5 10 1013.0 1012.9 0.0
31/10:00am 30.9 34.4 24.8 70 4.3 ESE 15 22 8 12 1013.1 1013.0 0.0
31/09:30am 30.1 35.1 25.4 76 3.3 ESE 9 17 5 9 1013.3 1013.2 0.0
31/09:00am 29.5 34.6 25.5 79 2.8 E 9 15 5 8 1013.2 1013.1 0.0
31/08:30am 27.1 32.8 25.9 93 0.8 E 7 11 4 6 1012.9 1012.8 0.0
31/08:00am 25.5 31.2 25.0 97 0.3 E 4 7 2 4 1012.8 1012.7 0.0
31/07:30am 24.3 29.3 23.8 97 0.3 ENE 4 6 2 3 1012.4 1012.3 0.0
31/07:00am 23.3 27.2 22.5 95 0.5 ENE 6 7 3 4 1012.1 1012.0 0.0
31/06:30am 23.3 28.2 22.3 94 0.7 CALM 0 0 0 0 1011.8 1011.7 0.0
31/06:00am 23.4 28.3 22.4 94 0.7 CALM 0 0 0 0 1011.8 1011.7 0.0
31/05:30am 23.4 28.3 22.4 94 0.7 CALM 0 0 0 0 1011.4 1011.3 0.0
31/05:00am 23.5 28.5 22.5 94 0.7 CALM 0 0 0 0 1011.1 1011.0 0.0
31/04:30am 23.7 28.8 22.7 94 0.7 CALM 0 0 0 0 1010.9 1010.8 0.0
31/04:00am 23.7 28.8 22.7 94 0.7 CALM 0 0 0 0 1010.9 1010.8 0.0
31/03:30am 23.8 29.0 22.8 94 0.7 CALM 0 0 0 0 1010.9 1010.8 0.0
31/03:00am 23.9 28.7 22.9 94 0.7 ENE 2 4 1 2 1010.9 1010.8 0.0
31/02:30am 23.9 28.4 22.9 94 0.7 ENE 4 6 2 3 1011.1 1011.0 0.0
31/02:00am 24.2 29.2 23.2 94 0.7 E 2 7 1 4 1011.4 1011.3 0.0
31/01:30am 24.0 28.9 23.0 94 0.7 NE 2 4 1 2 1011.7 1011.6 0.0
31/01:00am 24.1 28.9 22.9 93 0.8 NE 2 4 1 2 1012.1 1012.0 0.0
31/12:30am 24.2 28.7 23.0 93 0.8 NE 4 6 2 3 1012.3 1012.2 0.0
31/12:00am 24.4 29.4 23.2 93 0.8 ENE 2 4 1 2 1012.6 1012.5 0.0
 
Date/Time
CST
Tmp

°C
App
Tmp
°C
Dew
Point
°C
Rel
Hum
%
Delta-T

°C
Wind Press
QNH
hPa
Press
MSL
hPa
Rain
since
9 am
mm
Dir
 
Spd
km/h
Gust
km/h
Spd
kts
Gust
kts
30/11:30pm 24.7 29.4 23.3 92 1.0 ENE 4 6 2 3 1012.7 1012.6 0.0
30/11:00pm 24.9 29.1 23.5 92 1.0 NE 7 9 4 5 1012.8 1012.7 0.0
30/10:30pm 24.6 28.8 23.2 92 0.9 NE 6 9 3 5 1012.9 1012.8 0.0
30/10:00pm 24.6 29.1 23.0 91 1.1 NE 4 6 2 3 1012.9 1012.8 0.0
30/09:30pm 24.9 29.5 23.1 90 1.2 NE 4 6 2 3 1012.8 1012.7 0.0
30/09:00pm 25.3 30.3 23.2 88 1.4 NE 2 4 1 2 1012.6 1012.5 0.0
30/08:30pm 25.9 30.4 23.6 87 1.6 ENE 6 7 3 4 1012.3 1012.2 0.0
30/08:00pm 26.4 30.7 23.3 83 2.1 ENE 6 7 3 4 1012.0 1011.9 0.0
30/07:30pm 27.3 31.6 23.7 81 2.5 NE 7 13 4 7 1011.6 1011.5 0.0
30/07:00pm 27.7 31.9 24.1 81 2.5 ENE 9 17 5 9 1011.4 1011.3 0.0
30/06:30pm 28.2 33.3 24.6 81 2.5 E 6 9 3 5 1011.1 1011.0 0.0
30/06:00pm 30.1 33.2 23.5 67 4.6 NE 13 20 7 11 1010.8 1010.7 0.0
30/05:30pm 31.2 34.3 23.6 64 5.3 ENE 13 22 7 12 1010.7 1010.6 0.0
30/05:00pm 32.1 35.8 23.9 62 5.7 ENE 11 20 6 11 1010.4 1010.3 0.0
30/04:30pm 33.2 37.1 24.9 61 5.9 ENE 13 22 7 12 1010.2 1010.1 0.0
30/04:00pm 33.4 37.5 24.6 60 6.2 NE 11 22 6 12 1010.0 1009.9 0.0
30/03:30pm 33.7 37.1 24.0 57 6.8 NE 13 22 7 12 1009.9 1009.8 0.0
30/03:00pm 34.0 37.6 23.7 55 7.2 ENE 11 17 6 9 1010.1 1010.0 0.0
30/02:30pm 34.0 37.6 23.7 55 7.2 ENE 11 22 6 12 1010.3 1010.2 0.0
30/02:00pm 34.9 38.6 23.9 53 7.7 E 11 19 6 10 1010.6 1010.5 0.0
30/01:30pm 34.7 37.7 23.4 52 7.9 ENE 13 20 7 11 1010.7 1010.6 0.0
30/01:00pm 33.7 37.3 23.7 56 7.0 NE 11 20 6 11 1011.0 1010.9 0.0
30/12:30pm 33.1 36.2 22.8 54 7.1 ENE 11 19 6 10 1011.4 1011.3 0.0
30/12:00pm 33.3 37.7 24.5 60 6.2 E 9 17 5 9 1011.8 1011.7 0.0
30/11:30am 32.9 37.9 25.4 64 5.3 NE 9 19 5 10 1012.1 1012.0 0.0
30/11:00am 32.2 36.3 24.5 64 5.4 ENE 11 20 6 11 1012.7 1012.6 0.0
30/10:30am 31.9 35.6 24.5 65 5.2 E 13 20 7 11 1013.0 1012.9 0.0
30/10:00am 31.4 35.6 25.3 70 4.3 ENE 13 20 7 11 1013.0 1012.9 0.0
30/09:30am 30.5 35.1 25.3 74 3.7 ENE 11 20 6 11 1012.9 1012.8 0.0
30/09:00am 29.2 34.3 25.6 81 2.5 ENE 9 17 5 9 1013.0 1012.9 0.0
30/08:30am 27.1 32.5 25.5 91 1.1 E 7 13 4 7 1012.8 1012.7 0.0
30/08:00am 26.1 31.3 25.1 94 0.7 E 7 9 4 5 1012.4 1012.3 0.0
30/07:30am 24.8 29.5 23.9 95 0.6 E 6 7 3 4 1011.9 1011.8 0.0
30/07:00am 24.1 28.3 23.1 94 0.7 ESE 6 7 3 4 1011.6 1011.5 0.0
30/06:30am 24.2 28.3 23.0 93 0.8 E 6 7 3 4 1011.2 1011.1 0.0
30/06:00am 24.6 29.5 23.6 94 0.7 ESE 4 6 2 3 1011.1 1011.0 0.0
30/05:30am 24.9 29.6 24.0 95 0.6 ESE 6 7 3 4 1011.0 1010.9 0.0
30/05:00am 25.0 30.3 24.3 96 0.5 SE 4 4 2 2 1010.9 1010.8 0.0
30/04:30am 25.0 30.3 24.3 96 0.5 ESE 4 6 2 3 1010.7 1010.6 0.0
30/04:00am 24.6 30.2 23.6 94 0.7 CALM 0 0 0 0 1010.7 1010.6 0.0
30/03:30am 24.5 30.1 23.5 94 0.7 CALM 0 2 0 1 1010.8 1010.7 0.0
30/03:00am 24.6 30.2 23.6 94 0.7 CALM 0 0 0 0 1011.1 1011.0 0.0
30/02:30am 24.6 30.1 23.4 93 0.8 CALM 0 0 0 0 1011.2 1011.1 0.0
30/02:00am 24.6 30.2 23.6 94 0.7 CALM 0 2 0 1 1011.3 1011.2 0.0
30/01:30am 24.6 30.2 23.6 94 0.7 CALM 0 0 0 0 1011.6 1011.5 0.0
30/01:00am 24.8 30.4 23.6 93 0.8 CALM 0 0 0 0 1012.0 1011.9 0.0
30/12:30am 25.0 30.6 23.6 92 1.0 CALM 0 0 0 0 1012.3 1012.2 0.0
30/12:00am 25.3 31.1 23.9 92 1.0 CALM 0 0 0 0 1012.7 1012.6 0.0
 
Date/Time
CST
Tmp

°C
App
Tmp
°C
Dew
Point
°C
Rel
Hum
%
Delta-T

°C
Wind Press
QNH
hPa
Press
MSL
hPa
Rain
since
9 am
mm
Dir
 
Spd
km/h
Gust
km/h
Spd
kts
Gust
kts
29/11:30pm 25.4 31.2 24.0 92 1.0 CALM 0 0 0 0 1012.8 1012.7 0.0
29/11:00pm 25.6 31.6 24.2 92 1.0 CALM 0 0 0 0 1012.9 1012.8 0.0
29/10:30pm 25.7 31.6 24.1 91 1.1 CALM 0 0 0 0 1013.1 1013.0 0.0
29/10:00pm 25.9 31.8 24.1 90 1.2 CALM 0 0 0 0 1012.9 1012.8 0.0
29/09:30pm 26.0 31.6 24.2 90 1.2 NE 2 4 1 2 1012.6 1012.5 0.0
29/09:00pm 26.2 31.8 24.2 89 1.4 NNE 2 4 1 2 1012.6 1012.5 0.0
29/08:30pm 26.5 31.8 24.3 88 1.5 NE 4 6 2 3 1012.3 1012.2 0.0
29/08:00pm 26.7 31.9 24.2 86 1.7 NE 4 4 2 2 1012.0 1011.9 0.0
29/07:30pm 27.1 32.3 24.2 84 2.0 NE 4 6 2 3 1011.7 1011.6 0.0
29/07:00pm 28.0 33.1 24.0 79 2.8 NE 4 6 2 3 1011.4 1011.3 0.0
29/06:30pm 29.2 33.4 24.1 74 3.5 ENE 9 13 5 7 1010.8 1010.7 0.0
29/06:00pm 30.5 34.2 23.9 68 4.6 ENE 11 13 6 7 1010.4 1010.3 0.0

Latest Capital City Observations: Canberra | Sydney | Melbourne | Brisbane | Adelaide | Perth | Hobart | Darwin

Other Formats:

Comma delimited format used in spreadsheet applications
http://www.bom.gov.au/fwo/IDD60901/IDD60901.94119.axf

JavaScript Object Notation format (JSON) in row-major order
http://www.bom.gov.au/fwo/IDD60901/IDD60901.94119.json